sensor_id;sensor_type;location;lat;lon;timestamp;temperature;humidity
16958;DHT22;8595;52.542;11.974;2022-10-15T00:01:06;14.60;99.90
16958;DHT22;8595;52.542;11.974;2022-10-15T00:03:35;14.50;99.90
16958;DHT22;8595;52.542;11.974;2022-10-15T00:06:03;14.50;99.90
16958;DHT22;8595;52.542;11.974;2022-10-15T00:08:31;14.50;99.90
16958;DHT22;8595;52.542;11.974;2022-10-15T00:11:02;14.50;99.90
16958;DHT22;8595;52.542;11.974;2022-10-15T00:13:30;14.60;99.90
16958;DHT22;8595;52.542;11.974;2022-10-15T00:15:57;14.60;99.90
16958;DHT22;8595;52.542;11.974;2022-10-15T00:18:24;14.60;99.90
16958;DHT22;8595;52.542;11.974;2022-10-15T00:20:51;14.70;99.90
16958;DHT22;8595;52.542;11.974;2022-10-15T00:23:17;14.70;99.90
16958;DHT22;8595;52.542;11.974;2022-10-15T00:25:44;14.60;99.90
16958;DHT22;8595;52.542;11.974;2022-10-15T00:28:11;14.60;99.90
16958;DHT22;8595;52.542;11.974;2022-10-15T00:30:39;14.70;99.90
16958;DHT22;8595;52.542;11.974;2022-10-15T00:33:06;14.70;99.90
16958;DHT22;8595;52.542;11.974;2022-10-15T00:35:32;14.80;99.90
16958;DHT22;8595;52.542;11.974;2022-10-15T00:37:59;14.80;99.90
16958;DHT22;8595;52.542;11.974;2022-10-15T00:40:26;14.90;99.90
16958;DHT22;8595;52.542;11.974;2022-10-15T00:42:52;14.90;99.90
16958;DHT22;8595;52.542;11.974;2022-10-15T00:45:19;14.90;99.90
16958;DHT22;8595;52.542;11.974;2022-10-15T00:47:48;14.90;99.90
16958;DHT22;8595;52.542;11.974;2022-10-15T00:50:18;14.90;99.90
16958;DHT22;8595;52.542;11.974;2022-10-15T00:52:53;14.90;99.90
16958;DHT22;8595;52.542;11.974;2022-10-15T00:55:27;15.00;99.90
16958;DHT22;8595;52.542;11.974;2022-10-15T00:57:55;14.90;99.90
16958;DHT22;8595;52.542;11.974;2022-10-15T01:00:23;14.90;99.90
16958;DHT22;8595;52.542;11.974;2022-10-15T01:02:51;14.90;99.90
16958;DHT22;8595;52.542;11.974;2022-10-15T01:05:19;14.90;99.90
16958;DHT22;8595;52.542;11.974;2022-10-15T01:07:46;15.00;99.90
16958;DHT22;8595;52.542;11.974;2022-10-15T01:10:13;15.00;99.90
16958;DHT22;8595;52.542;11.974;2022-10-15T01:12:59;15.00;99.90
16958;DHT22;8595;52.542;11.974;2022-10-15T01:15:32;15.00;99.90
16958;DHT22;8595;52.542;11.974;2022-10-15T01:18:08;15.00;99.90
16958;DHT22;8595;52.542;11.974;2022-10-15T01:21:00;15.00;99.90
16958;DHT22;8595;52.542;11.974;2022-10-15T01:23:50;14.90;99.90
16958;DHT22;8595;52.542;11.974;2022-10-15T01:29:27;15.00;99.90
16958;DHT22;8595;52.542;11.974;2022-10-15T01:32:04;15.00;99.90
16958;DHT22;8595;52.542;11.974;2022-10-15T01:34:40;14.90;99.90
16958;DHT22;8595;52.542;11.974;2022-10-15T01:37:14;15.00;99.90
16958;DHT22;8595;52.542;11.974;2022-10-15T01:39:49;15.00;99.90
16958;DHT22;8595;52.542;11.974;2022-10-15T01:42:22;15.00;99.90
16958;DHT22;8595;52.542;11.974;2022-10-15T01:44:55;15.00;99.90
16958;DHT22;8595;52.542;11.974;2022-10-15T01:47:29;14.90;99.90
16958;DHT22;8595;52.542;11.974;2022-10-15T01:49:58;14.90;99.90
16958;DHT22;8595;52.542;11.974;2022-10-15T01:52:29;14.90;99.90
16958;DHT22;8595;52.542;11.974;2022-10-15T01:54:57;14.90;99.90
16958;DHT22;8595;52.542;11.974;2022-10-15T01:57:26;14.90;99.90
16958;DHT22;8595;52.542;11.974;2022-10-15T01:59:54;14.90;99.90
16958;DHT22;8595;52.542;11.974;2022-10-15T02:02:21;14.80;99.90
16958;DHT22;8595;52.542;11.974;2022-10-15T02:04:49;14.80;99.90
16958;DHT22;8595;52.542;11.974;2022-10-15T02:07:23;14.80;99.90
16958;DHT22;8595;52.542;11.974;2022-10-15T02:09:58;14.80;99.90
16958;DHT22;8595;52.542;11.974;2022-10-15T02:12:39;14.70;99.90
16958;DHT22;8595;52.542;11.974;2022-10-15T02:15:16;14.70;99.90
16958;DHT22;8595;52.542;11.974;2022-10-15T02:17:48;14.70;99.90
16958;DHT22;8595;52.542;11.974;2022-10-15T02:20:23;14.70;99.90
16958;DHT22;8595;52.542;11.974;2022-10-15T02:22:55;14.70;99.90
16958;DHT22;8595;52.542;11.974;2022-10-15T02:25:26;14.60;99.90
16958;DHT22;8595;52.542;11.974;2022-10-15T02:27:55;14.60;99.90
16958;DHT22;8595;52.542;11.974;2022-10-15T02:30:23;14.70;99.90
16958;DHT22;8595;52.542;11.974;2022-10-15T02:32:52;14.50;99.90
16958;DHT22;8595;52.542;11.974;2022-10-15T02:35:22;14.50;99.90
16958;DHT22;8595;52.542;11.974;2022-10-15T02:37:52;14.50;99.90
16958;DHT22;8595;52.542;11.974;2022-10-15T02:40:21;14.50;99.90
16958;DHT22;8595;52.542;11.974;2022-10-15T02:42:49;14.50;99.90
16958;DHT22;8595;52.542;11.974;2022-10-15T02:45:17;14.50;99.90
16958;DHT22;8595;52.542;11.974;2022-10-15T02:47:43;14.50;99.90
16958;DHT22;8595;52.542;11.974;2022-10-15T02:50:10;14.40;99.90
16958;DHT22;8595;52.542;11.974;2022-10-15T02:52:38;14.40;99.90
16958;DHT22;8595;52.542;11.974;2022-10-15T02:55:05;14.30;99.90
16958;DHT22;8595;52.542;11.974;2022-10-15T02:57:32;14.30;99.90
16958;DHT22;8595;52.542;11.974;2022-10-15T02:59:59;14.40;99.90
16958;DHT22;8595;52.542;11.974;2022-10-15T03:02:26;14.30;99.90
16958;DHT22;8595;52.542;11.974;2022-10-15T03:04:53;14.30;99.90
16958;DHT22;8595;52.542;11.974;2022-10-15T03:07:19;14.30;99.90
16958;DHT22;8595;52.542;11.974;2022-10-15T03:09:48;14.20;99.90
16958;DHT22;8595;52.542;11.974;2022-10-15T03:12:14;14.20;99.90
16958;DHT22;8595;52.542;11.974;2022-10-15T03:14:41;14.30;99.90
16958;DHT22;8595;52.542;11.974;2022-10-15T03:17:08;14.20;99.90
16958;DHT22;8595;52.542;11.974;2022-10-15T03:19:35;14.20;99.90
16958;DHT22;8595;52.542;11.974;2022-10-15T03:22:02;14.10;99.90
16958;DHT22;8595;52.542;11.974;2022-10-15T03:24:28;14.10;99.90
16958;DHT22;8595;52.542;11.974;2022-10-15T03:26:56;14.00;99.90
16958;DHT22;8595;52.542;11.974;2022-10-15T03:29:23;14.00;99.90
16958;DHT22;8595;52.542;11.974;2022-10-15T03:31:50;14.00;99.90
16958;DHT22;8595;52.542;11.974;2022-10-15T03:34:17;14.10;99.90
16958;DHT22;8595;52.542;11.974;2022-10-15T03:36:44;14.10;99.90
16958;DHT22;8595;52.542;11.974;2022-10-15T03:39:12;14.00;99.90
16958;DHT22;8595;52.542;11.974;2022-10-15T03:41:39;14.00;99.90
16958;DHT22;8595;52.542;11.974;2022-10-15T03:44:09;14.10;99.90
16958;DHT22;8595;52.542;11.974;2022-10-15T03:46:36;14.10;99.90
16958;DHT22;8595;52.542;11.974;2022-10-15T03:49:02;14.00;99.90
16958;DHT22;8595;52.542;11.974;2022-10-15T03:51:29;14.10;99.90
16958;DHT22;8595;52.542;11.974;2022-10-15T03:53:56;14.10;99.90
16958;DHT22;8595;52.542;11.974;2022-10-15T03:56:23;14.00;99.90
16958;DHT22;8595;52.542;11.974;2022-10-15T03:58:49;14.00;99.90
16958;DHT22;8595;52.542;11.974;2022-10-15T04:01:19;14.10;99.90
16958;DHT22;8595;52.542;11.974;2022-10-15T04:03:45;14.10;99.90
16958;DHT22;8595;52.542;11.974;2022-10-15T04:06:12;14.10;99.90
16958;DHT22;8595;52.542;11.974;2022-10-15T04:08:39;14.10;99.90
16958;DHT22;8595;52.542;11.974;2022-10-15T04:11:06;14.20;99.90
16958;DHT22;8595;52.542;11.974;2022-10-15T04:13:33;14.10;99.90
16958;DHT22;8595;52.542;11.974;2022-10-15T04:16:00;14.10;99.90
16958;DHT22;8595;52.542;11.974;2022-10-15T04:18:30;14.10;99.90
16958;DHT22;8595;52.542;11.974;2022-10-15T04:20:57;14.10;99.90
16958;DHT22;8595;52.542;11.974;2022-10-15T04:23:24;14.10;99.90
16958;DHT22;8595;52.542;11.974;2022-10-15T04:25:51;14.00;99.90
16958;DHT22;8595;52.542;11.974;2022-10-15T04:28:19;14.00;99.90
16958;DHT22;8595;52.542;11.974;2022-10-15T04:30:45;14.00;99.90
16958;DHT22;8595;52.542;11.974;2022-10-15T04:33:12;14.10;99.90
16958;DHT22;8595;52.542;11.974;2022-10-15T04:35:40;14.00;99.90
16958;DHT22;8595;52.542;11.974;2022-10-15T04:38:07;14.00;99.90
16958;DHT22;8595;52.542;11.974;2022-10-15T04:40:34;14.00;99.90
16958;DHT22;8595;52.542;11.974;2022-10-15T04:43:00;14.10;99.90
16958;DHT22;8595;52.542;11.974;2022-10-15T04:45:27;14.00;99.90
16958;DHT22;8595;52.542;11.974;2022-10-15T04:47:55;14.00;99.90
16958;DHT22;8595;52.542;11.974;2022-10-15T04:50:22;14.00;99.90
16958;DHT22;8595;52.542;11.974;2022-10-15T04:52:50;13.90;99.90
16958;DHT22;8595;52.542;11.974;2022-10-15T04:55:17;13.90;99.90
16958;DHT22;8595;52.542;11.974;2022-10-15T04:57:44;13.90;99.90
16958;DHT22;8595;52.542;11.974;2022-10-15T05:00:11;13.90;99.90
16958;DHT22;8595;52.542;11.974;2022-10-15T05:02:40;13.80;99.90
16958;DHT22;8595;52.542;11.974;2022-10-15T05:05:08;13.80;99.90
16958;DHT22;8595;52.542;11.974;2022-10-15T05:07:34;13.80;99.90
16958;DHT22;8595;52.542;11.974;2022-10-15T05:10:03;13.90;99.90
16958;DHT22;8595;52.542;11.974;2022-10-15T05:12:30;13.90;99.90
16958;DHT22;8595;52.542;11.974;2022-10-15T05:14:57;13.90;99.90
16958;DHT22;8595;52.542;11.974;2022-10-15T05:17:23;13.90;99.90
16958;DHT22;8595;52.542;11.974;2022-10-15T05:19:50;13.90;99.90
16958;DHT22;8595;52.542;11.974;2022-10-15T05:22:17;13.90;99.90
16958;DHT22;8595;52.542;11.974;2022-10-15T05:24:44;13.90;99.90
16958;DHT22;8595;52.542;11.974;2022-10-15T05:27:12;14.00;99.90
16958;DHT22;8595;52.542;11.974;2022-10-15T05:29:38;13.90;99.90
16958;DHT22;8595;52.542;11.974;2022-10-15T05:32:05;13.90;99.90
16958;DHT22;8595;52.542;11.974;2022-10-15T05:34:32;14.00;99.90
16958;DHT22;8595;52.542;11.974;2022-10-15T05:36:59;13.90;99.90
16958;DHT22;8595;52.542;11.974;2022-10-15T05:39:25;13.90;99.90
16958;DHT22;8595;52.542;11.974;2022-10-15T05:41:52;13.90;99.90
16958;DHT22;8595;52.542;11.974;2022-10-15T05:44:20;13.90;99.90
16958;DHT22;8595;52.542;11.974;2022-10-15T05:46:47;14.00;99.90
16958;DHT22;8595;52.542;11.974;2022-10-15T05:49:14;14.00;99.90
16958;DHT22;8595;52.542;11.974;2022-10-15T05:51:41;14.00;99.90
16958;DHT22;8595;52.542;11.974;2022-10-15T05:54:07;14.00;99.90
16958;DHT22;8595;52.542;11.974;2022-10-15T05:56:34;13.90;99.90
16958;DHT22;8595;52.542;11.974;2022-10-15T05:59:01;13.90;99.90
16958;DHT22;8595;52.542;11.974;2022-10-15T06:01:30;13.80;99.90
16958;DHT22;8595;52.542;11.974;2022-10-15T06:03:57;13.90;99.90
16958;DHT22;8595;52.542;11.974;2022-10-15T06:06:25;13.90;99.90
16958;DHT22;8595;52.542;11.974;2022-10-15T06:08:52;13.90;99.90
16958;DHT22;8595;52.542;11.974;2022-10-15T06:11:19;13.90;99.90
16958;DHT22;8595;52.542;11.974;2022-10-15T06:13:46;14.00;99.90
16958;DHT22;8595;52.542;11.974;2022-10-15T06:16:15;14.00;99.90
16958;DHT22;8595;52.542;11.974;2022-10-15T06:18:44;14.10;99.90
16958;DHT22;8595;52.542;11.974;2022-10-15T06:21:11;14.10;99.90
16958;DHT22;8595;52.542;11.974;2022-10-15T06:23:38;14.20;99.90
16958;DHT22;8595;52.542;11.974;2022-10-15T06:26:06;14.20;99.90
16958;DHT22;8595;52.542;11.974;2022-10-15T06:28:34;14.20;99.90
16958;DHT22;8595;52.542;11.974;2022-10-15T06:31:01;14.30;99.90
16958;DHT22;8595;52.542;11.974;2022-10-15T06:33:28;14.20;99.90
16958;DHT22;8595;52.542;11.974;2022-10-15T06:36:01;14.30;99.90
16958;DHT22;8595;52.542;11.974;2022-10-15T06:38:28;14.20;99.90
16958;DHT22;8595;52.542;11.974;2022-10-15T06:40:54;14.30;99.90
16958;DHT22;8595;52.542;11.974;2022-10-15T06:43:21;14.30;99.90
16958;DHT22;8595;52.542;11.974;2022-10-15T06:45:48;14.30;99.90
16958;DHT22;8595;52.542;11.974;2022-10-15T06:48:15;14.40;99.90
16958;DHT22;8595;52.542;11.974;2022-10-15T06:50:41;14.50;99.90
16958;DHT22;8595;52.542;11.974;2022-10-15T06:53:10;14.50;99.90
16958;DHT22;8595;52.542;11.974;2022-10-15T06:55:36;14.60;99.90
16958;DHT22;8595;52.542;11.974;2022-10-15T06:58:04;14.70;99.90
16958;DHT22;8595;52.542;11.974;2022-10-15T07:00:31;14.90;99.90
16958;DHT22;8595;52.542;11.974;2022-10-15T07:03:02;15.10;99.90
16958;DHT22;8595;52.542;11.974;2022-10-15T07:05:29;15.40;99.90
16958;DHT22;8595;52.542;11.974;2022-10-15T07:07:56;15.70;99.90
16958;DHT22;8595;52.542;11.974;2022-10-15T07:10:25;15.70;99.90
16958;DHT22;8595;52.542;11.974;2022-10-15T07:12:53;15.80;99.90
16958;DHT22;8595;52.542;11.974;2022-10-15T07:15:20;15.80;99.90
16958;DHT22;8595;52.542;11.974;2022-10-15T07:17:47;15.70;99.90
16958;DHT22;8595;52.542;11.974;2022-10-15T07:20:14;15.50;99.90
16958;DHT22;8595;52.542;11.974;2022-10-15T07:22:41;15.40;99.90
16958;DHT22;8595;52.542;11.974;2022-10-15T07:25:08;15.30;99.90
16958;DHT22;8595;52.542;11.974;2022-10-15T07:27:37;15.30;99.90
16958;DHT22;8595;52.542;11.974;2022-10-15T07:30:06;15.20;99.90
16958;DHT22;8595;52.542;11.974;2022-10-15T07:32:33;15.20;99.90
16958;DHT22;8595;52.542;11.974;2022-10-15T07:35:00;15.20;99.90
16958;DHT22;8595;52.542;11.974;2022-10-15T07:37:26;15.30;99.90
16958;DHT22;8595;52.542;11.974;2022-10-15T07:39:53;15.30;99.90
16958;DHT22;8595;52.542;11.974;2022-10-15T07:42:20;15.30;99.90
16958;DHT22;8595;52.542;11.974;2022-10-15T07:44:48;15.40;99.90
16958;DHT22;8595;52.542;11.974;2022-10-15T07:47:15;15.50;99.90
16958;DHT22;8595;52.542;11.974;2022-10-15T07:49:42;15.50;99.90
16958;DHT22;8595;52.542;11.974;2022-10-15T07:52:09;15.70;99.90
16958;DHT22;8595;52.542;11.974;2022-10-15T07:54:36;15.70;99.90
16958;DHT22;8595;52.542;11.974;2022-10-15T07:57:03;15.70;99.90
16958;DHT22;8595;52.542;11.974;2022-10-15T07:59:31;15.80;99.90
16958;DHT22;8595;52.542;11.974;2022-10-15T08:01:59;15.80;99.90
16958;DHT22;8595;52.542;11.974;2022-10-15T08:04:26;15.60;99.90
16958;DHT22;8595;52.542;11.974;2022-10-15T08:06:53;15.70;99.90
16958;DHT22;8595;52.542;11.974;2022-10-15T08:09:20;15.60;99.90
16958;DHT22;8595;52.542;11.974;2022-10-15T08:11:47;15.70;99.90
16958;DHT22;8595;52.542;11.974;2022-10-15T08:14:13;15.80;99.90
16958;DHT22;8595;52.542;11.974;2022-10-15T08:16:40;15.90;99.90
16958;DHT22;8595;52.542;11.974;2022-10-15T08:19:09;16.10;99.90
16958;DHT22;8595;52.542;11.974;2022-10-15T08:21:36;16.20;99.90
16958;DHT22;8595;52.542;11.974;2022-10-15T08:24:03;16.30;99.90
16958;DHT22;8595;52.542;11.974;2022-10-15T08:26:30;16.30;99.90
16958;DHT22;8595;52.542;11.974;2022-10-15T08:28:57;16.60;99.90
16958;DHT22;8595;52.542;11.974;2022-10-15T08:31:24;16.70;99.90
16958;DHT22;8595;52.542;11.974;2022-10-15T08:33:50;16.70;99.90
16958;DHT22;8595;52.542;11.974;2022-10-15T08:36:18;16.70;99.90
16958;DHT22;8595;52.542;11.974;2022-10-15T08:38:45;16.70;99.90
16958;DHT22;8595;52.542;11.974;2022-10-15T08:41:19;17.00;99.90
16958;DHT22;8595;52.542;11.974;2022-10-15T08:43:47;17.80;99.90
16958;DHT22;8595;52.542;11.974;2022-10-15T08:46:17;18.60;99.90
16958;DHT22;8595;52.542;11.974;2022-10-15T08:48:48;19.10;99.90
16958;DHT22;8595;52.542;11.974;2022-10-15T08:51:20;19.30;99.90
16958;DHT22;8595;52.542;11.974;2022-10-15T08:53:49;19.40;99.90
16958;DHT22;8595;52.542;11.974;2022-10-15T08:56:20;19.00;99.90
16958;DHT22;8595;52.542;11.974;2022-10-15T08:58:52;18.60;99.90
16958;DHT22;8595;52.542;11.974;2022-10-15T09:01:27;18.50;99.90
16958;DHT22;8595;52.542;11.974;2022-10-15T09:04:06;18.60;99.90
16958;DHT22;8595;52.542;11.974;2022-10-15T09:06:39;18.70;99.90
16958;DHT22;8595;52.542;11.974;2022-10-15T09:09:13;18.50;99.90
16958;DHT22;8595;52.542;11.974;2022-10-15T09:11:50;18.30;99.90
16958;DHT22;8595;52.542;11.974;2022-10-15T09:14:21;18.10;99.90
16958;DHT22;8595;52.542;11.974;2022-10-15T09:16:49;18.10;99.90
16958;DHT22;8595;52.542;11.974;2022-10-15T09:19:18;18.10;99.90
16958;DHT22;8595;52.542;11.974;2022-10-15T09:21:48;18.20;99.90
16958;DHT22;8595;52.542;11.974;2022-10-15T09:24:19;18.40;99.90
16958;DHT22;8595;52.542;11.974;2022-10-15T09:26:53;18.70;99.90
16958;DHT22;8595;52.542;11.974;2022-10-15T09:29:27;18.60;99.90
16958;DHT22;8595;52.542;11.974;2022-10-15T09:32:04;18.50;99.90
16958;DHT22;8595;52.542;11.974;2022-10-15T09:34:38;18.60;99.90
16958;DHT22;8595;52.542;11.974;2022-10-15T09:37:13;18.80;99.90
16958;DHT22;8595;52.542;11.974;2022-10-15T09:39:51;18.90;99.90
16958;DHT22;8595;52.542;11.974;2022-10-15T09:42:26;18.80;99.90
16958;DHT22;8595;52.542;11.974;2022-10-15T09:44:57;18.60;99.90
16958;DHT22;8595;52.542;11.974;2022-10-15T09:47:26;18.70;99.90
16958;DHT22;8595;52.542;11.974;2022-10-15T09:49:54;18.60;99.90
16958;DHT22;8595;52.542;11.974;2022-10-15T09:52:26;18.50;99.90
16958;DHT22;8595;52.542;11.974;2022-10-15T09:55:01;18.30;99.90
16958;DHT22;8595;52.542;11.974;2022-10-15T09:57:30;18.20;99.90
16958;DHT22;8595;52.542;11.974;2022-10-15T09:59:58;18.30;99.90
16958;DHT22;8595;52.542;11.974;2022-10-15T10:02:27;18.30;99.90
16958;DHT22;8595;52.542;11.974;2022-10-15T10:04:55;18.30;99.90
16958;DHT22;8595;52.542;11.974;2022-10-15T10:07:29;18.40;99.90
16958;DHT22;8595;52.542;11.974;2022-10-15T10:09:59;18.50;99.90
16958;DHT22;8595;52.542;11.974;2022-10-15T10:12:29;18.60;99.90
16958;DHT22;8595;52.542;11.974;2022-10-15T10:14:58;18.60;99.90
16958;DHT22;8595;52.542;11.974;2022-10-15T10:17:26;18.50;99.90
16958;DHT22;8595;52.542;11.974;2022-10-15T10:20:18;18.40;99.90
16958;DHT22;8595;52.542;11.974;2022-10-15T10:22:48;18.50;99.90
16958;DHT22;8595;52.542;11.974;2022-10-15T10:25:33;18.50;99.90
16958;DHT22;8595;52.542;11.974;2022-10-15T10:28:13;18.50;99.90
16958;DHT22;8595;52.542;11.974;2022-10-15T10:30:50;18.80;99.90
16958;DHT22;8595;52.542;11.974;2022-10-15T10:33:23;18.90;99.90
16958;DHT22;8595;52.542;11.974;2022-10-15T10:35:51;18.90;99.90
16958;DHT22;8595;52.542;11.974;2022-10-15T10:38:21;19.00;99.90
16958;DHT22;8595;52.542;11.974;2022-10-15T10:40:52;19.20;99.90
16958;DHT22;8595;52.542;11.974;2022-10-15T10:43:23;19.40;99.90
16958;DHT22;8595;52.542;11.974;2022-10-15T10:45:55;19.70;99.90
16958;DHT22;8595;52.542;11.974;2022-10-15T10:48:25;19.80;99.90
16958;DHT22;8595;52.542;11.974;2022-10-15T10:51:05;19.90;99.90
16958;DHT22;8595;52.542;11.974;2022-10-15T10:53:39;20.10;99.90
16958;DHT22;8595;52.542;11.974;2022-10-15T10:56:10;20.30;99.90
16958;DHT22;8595;52.542;11.974;2022-10-15T10:58:40;20.30;99.90
16958;DHT22;8595;52.542;11.974;2022-10-15T11:01:11;20.20;99.90
16958;DHT22;8595;52.542;11.974;2022-10-15T11:03:39;20.40;99.90
16958;DHT22;8595;52.542;11.974;2022-10-15T11:06:30;20.50;99.90
16958;DHT22;8595;52.542;11.974;2022-10-15T11:09:09;20.50;99.90
16958;DHT22;8595;52.542;11.974;2022-10-15T11:11:45;20.20;99.90
16958;DHT22;8595;52.542;11.974;2022-10-15T11:14:21;20.20;99.90
16958;DHT22;8595;52.542;11.974;2022-10-15T11:16:58;20.10;99.90
16958;DHT22;8595;52.542;11.974;2022-10-15T11:19:33;19.90;99.90
16958;DHT22;8595;52.542;11.974;2022-10-15T11:22:14;20.00;99.90
16958;DHT22;8595;52.542;11.974;2022-10-15T11:24:50;20.50;99.90
16958;DHT22;8595;52.542;11.974;2022-10-15T11:27:35;21.40;99.90
16958;DHT22;8595;52.542;11.974;2022-10-15T11:30:09;22.40;99.90
16958;DHT22;8595;52.542;11.974;2022-10-15T11:32:46;23.10;99.90
16958;DHT22;8595;52.542;11.974;2022-10-15T11:35:25;23.60;99.90
16958;DHT22;8595;52.542;11.974;2022-10-15T11:38:12;23.80;99.90
16958;DHT22;8595;52.542;11.974;2022-10-15T11:40:48;23.80;99.90
16958;DHT22;8595;52.542;11.974;2022-10-15T11:43:31;24.20;99.90
16958;DHT22;8595;52.542;11.974;2022-10-15T11:46:09;25.00;99.90
16958;DHT22;8595;52.542;11.974;2022-10-15T11:48:46;25.90;99.90
16958;DHT22;8595;52.542;11.974;2022-10-15T11:51:21;25.00;99.90
16958;DHT22;8595;52.542;11.974;2022-10-15T11:54:12;24.50;99.90
16958;DHT22;8595;52.542;11.974;2022-10-15T11:56:45;23.60;99.90
16958;DHT22;8595;52.542;11.974;2022-10-15T11:59:18;23.00;99.90
16958;DHT22;8595;52.542;11.974;2022-10-15T12:01:53;22.80;99.90
16958;DHT22;8595;52.542;11.974;2022-10-15T12:04:26;22.40;99.90
16958;DHT22;8595;52.542;11.974;2022-10-15T12:06:56;22.30;99.90
16958;DHT22;8595;52.542;11.974;2022-10-15T12:09:25;22.20;99.90
16958;DHT22;8595;52.542;11.974;2022-10-15T12:12:02;22.10;99.90
16958;DHT22;8595;52.542;11.974;2022-10-15T12:14:34;21.80;99.90
16958;DHT22;8595;52.542;11.974;2022-10-15T12:17:10;21.40;99.90
16958;DHT22;8595;52.542;11.974;2022-10-15T12:19:46;21.20;99.90
16958;DHT22;8595;52.542;11.974;2022-10-15T12:22:31;20.80;99.90
16958;DHT22;8595;52.542;11.974;2022-10-15T12:24:58;20.60;99.90
16958;DHT22;8595;52.542;11.974;2022-10-15T12:27:32;20.40;99.90
16958;DHT22;8595;52.542;11.974;2022-10-15T12:30:22;20.50;99.90
16958;DHT22;8595;52.542;11.974;2022-10-15T12:32:50;20.80;99.90
16958;DHT22;8595;52.542;11.974;2022-10-15T12:35:33;21.20;99.90
16958;DHT22;8595;52.542;11.974;2022-10-15T12:38:23;21.80;99.90
16958;DHT22;8595;52.542;11.974;2022-10-15T12:40:56;22.50;99.90
16958;DHT22;8595;52.542;11.974;2022-10-15T12:43:25;22.80;99.90
16958;DHT22;8595;52.542;11.974;2022-10-15T12:45:54;23.30;99.90
16958;DHT22;8595;52.542;11.974;2022-10-15T12:48:32;23.40;99.90
16958;DHT22;8595;52.542;11.974;2022-10-15T12:54:40;23.20;99.90
16958;DHT22;8595;52.542;11.974;2022-10-15T13:00:29;22.40;99.90
16958;DHT22;8595;52.542;11.974;2022-10-15T13:03:06;22.10;99.90
16958;DHT22;8595;52.542;11.974;2022-10-15T13:05:35;21.90;99.90
16958;DHT22;8595;52.542;11.974;2022-10-15T13:08:05;21.60;99.90
16958;DHT22;8595;52.542;11.974;2022-10-15T13:10:40;21.50;99.90
16958;DHT22;8595;52.542;11.974;2022-10-15T13:13:13;21.50;99.90
16958;DHT22;8595;52.542;11.974;2022-10-15T13:15:41;21.70;99.90
16958;DHT22;8595;52.542;11.974;2022-10-15T13:18:12;22.10;99.90
16958;DHT22;8595;52.542;11.974;2022-10-15T13:20:41;22.00;99.90
16958;DHT22;8595;52.542;11.974;2022-10-15T13:23:10;21.60;99.90
16958;DHT22;8595;52.542;11.974;2022-10-15T13:25:43;21.20;99.90
16958;DHT22;8595;52.542;11.974;2022-10-15T13:28:28;20.80;99.90
16958;DHT22;8595;52.542;11.974;2022-10-15T13:30:55;20.70;99.90
16958;DHT22;8595;52.542;11.974;2022-10-15T13:33:23;20.60;99.90
16958;DHT22;8595;52.542;11.974;2022-10-15T13:35:50;20.40;99.90
16958;DHT22;8595;52.542;11.974;2022-10-15T13:38:20;21.20;99.90
16958;DHT22;8595;52.542;11.974;2022-10-15T13:40:50;21.80;99.90
16958;DHT22;8595;52.542;11.974;2022-10-15T13:43:19;22.50;99.90
16958;DHT22;8595;52.542;11.974;2022-10-15T13:45:48;23.10;99.90
16958;DHT22;8595;52.542;11.974;2022-10-15T13:48:20;23.60;99.90
16958;DHT22;8595;52.542;11.974;2022-10-15T13:50:49;24.00;99.90
16958;DHT22;8595;52.542;11.974;2022-10-15T13:53:22;24.40;99.90
16958;DHT22;8595;52.542;11.974;2022-10-15T13:55:53;24.10;99.90
16958;DHT22;8595;52.542;11.974;2022-10-15T13:58:23;23.50;99.90
16958;DHT22;8595;52.542;11.974;2022-10-15T14:00:56;23.10;99.90
16958;DHT22;8595;52.542;11.974;2022-10-15T14:03:24;22.90;99.90
16958;DHT22;8595;52.542;11.974;2022-10-15T14:05:53;22.50;99.90
16958;DHT22;8595;52.542;11.974;2022-10-15T14:08:23;22.30;99.90
16958;DHT22;8595;52.542;11.974;2022-10-15T14:10:54;22.00;99.90
16958;DHT22;8595;52.542;11.974;2022-10-15T14:13:22;21.70;99.90
16958;DHT22;8595;52.542;11.974;2022-10-15T14:15:56;21.30;99.90
16958;DHT22;8595;52.542;11.974;2022-10-15T14:18:31;21.10;99.90
16958;DHT22;8595;52.542;11.974;2022-10-15T14:21:00;20.70;99.90
16958;DHT22;8595;52.542;11.974;2022-10-15T14:23:27;21.30;99.90
16958;DHT22;8595;52.542;11.974;2022-10-15T14:25:59;21.80;99.90
16958;DHT22;8595;52.542;11.974;2022-10-15T14:28:28;22.60;99.90
16958;DHT22;8595;52.542;11.974;2022-10-15T14:30:55;22.90;99.90
16958;DHT22;8595;52.542;11.974;2022-10-15T14:33:43;23.10;99.90
16958;DHT22;8595;52.542;11.974;2022-10-15T14:36:24;23.10;99.90
16958;DHT22;8595;52.542;11.974;2022-10-15T14:38:52;23.10;99.90
16958;DHT22;8595;52.542;11.974;2022-10-15T14:41:27;22.80;99.90
16958;DHT22;8595;52.542;11.974;2022-10-15T14:44:03;23.00;99.90
16958;DHT22;8595;52.542;11.974;2022-10-15T14:46:36;22.90;99.90
16958;DHT22;8595;52.542;11.974;2022-10-15T14:49:15;23.20;99.90
16958;DHT22;8595;52.542;11.974;2022-10-15T14:51:43;23.10;99.90
16958;DHT22;8595;52.542;11.974;2022-10-15T14:54:18;22.80;99.90
16958;DHT22;8595;52.542;11.974;2022-10-15T14:56:48;22.90;99.90
16958;DHT22;8595;52.542;11.974;2022-10-15T14:59:18;23.10;99.90
16958;DHT22;8595;52.542;11.974;2022-10-15T15:01:52;23.00;99.90
16958;DHT22;8595;52.542;11.974;2022-10-15T15:04:41;22.60;99.90
16958;DHT22;8595;52.542;11.974;2022-10-15T15:07:12;22.50;99.90
16958;DHT22;8595;52.542;11.974;2022-10-15T15:09:39;22.30;99.90
16958;DHT22;8595;52.542;11.974;2022-10-15T15:12:14;22.20;99.90
16958;DHT22;8595;52.542;11.974;2022-10-15T15:14:42;21.90;99.90
16958;DHT22;8595;52.542;11.974;2022-10-15T15:17:14;21.60;99.90
16958;DHT22;8595;52.542;11.974;2022-10-15T15:19:41;21.40;99.90
16958;DHT22;8595;52.542;11.974;2022-10-15T15:22:09;20.90;99.90
16958;DHT22;8595;52.542;11.974;2022-10-15T15:24:37;20.80;99.90
16958;DHT22;8595;52.542;11.974;2022-10-15T15:27:04;20.40;99.90
16958;DHT22;8595;52.542;11.974;2022-10-15T15:29:32;20.30;99.90
16958;DHT22;8595;52.542;11.974;2022-10-15T15:31:59;20.10;99.90
16958;DHT22;8595;52.542;11.974;2022-10-15T15:34:26;19.90;99.90
16958;DHT22;8595;52.542;11.974;2022-10-15T15:36:52;19.80;99.90
16958;DHT22;8595;52.542;11.974;2022-10-15T15:39:19;19.70;99.90
16958;DHT22;8595;52.542;11.974;2022-10-15T15:41:46;19.60;99.90
16958;DHT22;8595;52.542;11.974;2022-10-15T15:44:13;19.50;99.90
16958;DHT22;8595;52.542;11.974;2022-10-15T15:46:41;19.30;99.90
16958;DHT22;8595;52.542;11.974;2022-10-15T15:49:08;19.10;99.90
16958;DHT22;8595;52.542;11.974;2022-10-15T15:51:36;19.20;99.90
16958;DHT22;8595;52.542;11.974;2022-10-15T15:54:03;19.00;99.90
16958;DHT22;8595;52.542;11.974;2022-10-15T15:56:31;18.90;99.90
16958;DHT22;8595;52.542;11.974;2022-10-15T15:58:59;18.80;99.90